Time,TemperatureF,DewpointF,PressureIn,WindDirection,WindDirectionDegrees,WindSpeedMPH,WindSpeedGustMPH,Humidity,HourlyPrecipIn,Conditions,Clouds,dailyrainin,SoftwareType,DateUTC
2013-09-16 00:04:00,57.0,56.4,29.97,East,90,0.0,-999.0,98,-99.99,,,0.00,Acu-Link.com,2013-09-16 04:04:00,
2013-09-16 00:19:00,57.0,56.4,29.97,South,180,0.0,-999.0,98,-99.99,,,0.00,Acu-Link.com,2013-09-16 04:19:00,
2013-09-16 00:34:00,56.8,56.2,29.96,ENE,67,0.0,-999.0,98,-99.99,,,0.00,Acu-Link.com,2013-09-16 04:34:00,
2013-09-16 00:49:00,56.3,55.7,29.96,SW,225,0.0,-999.0,98,-99.99,,,0.00,Acu-Link.com,2013-09-16 04:49:00,
2013-09-16 01:05:00,55.9,55.3,29.96,South,180,0.0,-999.0,98,-99.99,,,0.00,Acu-Link.com,2013-09-16 05:05:00,
2013-09-16 01:20:00,55.8,55.2,29.96,WNW,292,0.0,-999.0,98,-99.99,,,0.00,Acu-Link.com,2013-09-16 05:20:00,
2013-09-16 01:35:00,55.4,54.8,29.96,ESE,112,0.0,-999.0,98,-99.99,,,0.00,Acu-Link.com,2013-09-16 05:35:00,
2013-09-16 01:50:00,55.0,54.4,29.96,West,270,0.0,-999.0,98,-99.99,,,0.00,Acu-Link.com,2013-09-16 05:50:00,
2013-09-16 02:05:00,54.9,54.3,29.96,SSW,202,0.0,-999.0,98,-99.99,,,0.00,Acu-Link.com,2013-09-16 06:05:00,
2013-09-16 02:21:00,54.5,53.9,29.96,SW,225,0.0,-999.0,98,-99.99,,,0.00,Acu-Link.com,2013-09-16 06:21:00,
2013-09-16 02:36:00,54.7,54.1,29.97,SE,135,0.0,-999.0,98,-99.99,,,0.00,Acu-Link.com,2013-09-16 06:36:00,
2013-09-16 02:51:00,54.3,53.7,29.96,WSW,247,0.0,-999.0,98,-99.99,,,0.00,Acu-Link.com,2013-09-16 06:51:00,
2013-09-16 03:06:00,54.7,54.1,29.96,SSW,202,0.0,-999.0,98,-99.99,,,0.00,Acu-Link.com,2013-09-16 07:06:00,
2013-09-16 03:21:00,54.9,54.3,29.96,NE,45,0.0,-999.0,98,-99.99,,,0.00,Acu-Link.com,2013-09-16 07:21:00,
2013-09-16 03:37:00,54.9,54.3,29.96,SSE,157,0.0,-999.0,98,-99.99,,,0.00,Acu-Link.com,2013-09-16 07:37:00,
2013-09-16 03:52:00,54.5,53.9,29.96,SE,135,0.0,-999.0,98,-99.99,,,0.00,Acu-Link.com,2013-09-16 07:52:00,
2013-09-16 04:09:00,55.0,54.4,29.96,ENE,67,0.0,-999.0,98,-99.99,,,0.00,Acu-Link.com,2013-09-16 08:09:00,
2013-09-16 04:24:00,55.0,54.4,29.96,ENE,67,0.0,-999.0,98,-99.99,,,0.00,Acu-Link.com,2013-09-16 08:24:00,
2013-09-16 04:40:00,54.9,54.3,29.95,South,180,0.0,-999.0,98,-99.99,,,0.00,Acu-Link.com,2013-09-16 08:40:00,
2013-09-16 04:55:00,54.5,53.9,29.95,SSW,202,0.0,-999.0,98,-99.99,,,0.00,Acu-Link.com,2013-09-16 08:55:00,
2013-09-16 05:10:00,54.9,54.3,29.95,NE,45,0.0,-999.0,98,-99.99,,,0.00,Acu-Link.com,2013-09-16 09:10:00,
2013-09-16 05:26:00,54.9,54.3,29.96,ESE,112,0.0,-999.0,98,-99.99,,,0.00,Acu-Link.com,2013-09-16 09:26:00,
2013-09-16 05:41:00,54.9,54.3,29.96,SSW,202,0.0,-999.0,98,-99.99,,,0.00,Acu-Link.com,2013-09-16 09:41:00,
2013-09-16 05:56:00,54.7,54.1,29.96,ESE,112,0.0,-999.0,98,-99.99,,,0.00,Acu-Link.com,2013-09-16 09:56:00,
2013-09-16 06:11:00,54.7,54.1,29.96,NE,45,0.0,-999.0,98,-99.99,,,0.00,Acu-Link.com,2013-09-16 10:11:00,
2013-09-16 06:26:00,54.5,53.9,29.95,ENE,67,0.0,-999.0,98,-99.99,,,0.00,Acu-Link.com,2013-09-16 10:26:00,
2013-09-16 06:41:00,54.5,53.9,29.96,ENE,67,0.0,-999.0,98,-99.99,,,0.00,Acu-Link.com,2013-09-16 10:41:00,
2013-09-16 06:56:00,54.3,53.7,29.96,East,90,0.0,-999.0,98,-99.99,,,0.00,Acu-Link.com,2013-09-16 10:56:00,
2013-09-16 07:12:00,54.5,53.9,29.97,East,90,0.0,-999.0,98,-99.99,,,0.00,Acu-Link.com,2013-09-16 11:12:00,
2013-09-16 07:27:00,54.7,54.1,29.97,ENE,67,0.0,-999.0,98,-99.99,,,0.00,Acu-Link.com,2013-09-16 11:27:00,
2013-09-16 07:42:00,54.7,54.1,29.97,East,90,0.0,-999.0,98,-99.99,,,0.00,Acu-Link.com,2013-09-16 11:42:00,
2013-09-16 07:57:00,55.8,55.2,29.98,SSE,157,0.0,-999.0,98,-99.99,,,0.00,Acu-Link.com,2013-09-16 11:57:00,
2013-09-16 08:12:00,57.0,56.4,29.98,SSW,202,0.0,-999.0,98,-99.99,,,0.00,Acu-Link.com,2013-09-16 12:12:00,
2013-09-16 08:28:00,58.1,57.5,29.98,NE,45,0.0,-999.0,98,-99.99,,,0.00,Acu-Link.com,2013-09-16 12:28:00,
2013-09-16 08:43:00,59.0,58.4,29.98,ENE,67,0.0,-999.0,98,-99.99,,,0.00,Acu-Link.com,2013-09-16 12:43:00,
2013-09-16 08:58:00,59.9,59.3,29.98,ENE,67,0.0,-999.0,98,-99.99,,,0.00,Acu-Link.com,2013-09-16 12:58:00,
2013-09-16 09:13:00,61.2,60.6,29.98,SE,135,0.0,-999.0,98,-99.99,,,0.00,Acu-Link.com,2013-09-16 13:13:00,
2013-09-16 09:28:00,62.1,61.5,29.99,ESE,112,0.0,-999.0,98,-99.99,,,0.00,Acu-Link.com,2013-09-16 13:28:00,
2013-09-16 09:43:00,62.8,62.2,29.98,West,270,0.0,-999.0,98,-99.99,,,0.00,Acu-Link.com,2013-09-16 13:43:00,
2013-09-16 09:59:00,63.9,63.3,29.98,West,270,0.0,-999.0,98,-99.99,,,0.00,Acu-Link.com,2013-09-16 13:59:00,
2013-09-16 10:14:00,63.5,62.9,29.98,WNW,292,1.7,-999.0,98,-99.99,,,0.00,Acu-Link.com,2013-09-16 14:14:00,
2013-09-16 10:29:00,67.5,66.9,29.98,NW,315,1.7,-999.0,98,-99.99,,,0.00,Acu-Link.com,2013-09-16 14:29:00,
2013-09-16 10:44:00,69.6,69.0,29.98,South,180,0.0,-999.0,98,-99.99,,,0.00,Acu-Link.com,2013-09-16 14:44:00,
2013-09-16 11:01:00,72.1,71.5,29.98,West,270,0.0,-999.0,98,-99.99,,,0.00,Acu-Link.com,2013-09-16 15:01:00,
2013-09-16 11:16:00,73.4,72.8,29.98,NNE,22,2.2,-999.0,98,-99.99,,,0.00,Acu-Link.com,2013-09-16 15:16:00,
2013-09-16 11:32:00,76.6,76.0,29.98,WNW,292,1.7,-999.0,98,-99.99,,,0.00,Acu-Link.com,2013-09-16 15:32:00,
2013-09-16 11:47:00,77.7,77.1,29.97,SE,135,2.2,-999.0,98,-99.99,,,0.00,Acu-Link.com,2013-09-16 15:47:00,
2013-09-16 12:02:00,78.1,77.5,29.97,ESE,112,1.7,-999.0,98,-99.99,,,0.00,Acu-Link.com,2013-09-16 16:02:00,
2013-09-16 12:18:00,78.4,77.5,29.97,SE,135,2.2,-999.0,97,-99.99,,,0.00,Acu-Link.com,2013-09-16 16:18:00,
2013-09-16 12:33:00,78.8,77.9,29.97,West,270,1.7,-999.0,97,-99.99,,,0.00,Acu-Link.com,2013-09-16 16:33:00,
2013-09-16 12:48:00,77.7,77.1,29.97,ESE,112,1.7,-999.0,98,-99.99,,,0.00,Acu-Link.com,2013-09-16 16:48:00,
2013-09-16 13:03:00,81.0,80.4,29.97,WSW,247,2.7,-999.0,98,-99.99,,,0.00,Acu-Link.com,2013-09-16 17:03:00,
2013-09-16 13:18:00,79.5,78.6,29.96,SE,135,2.2,-999.0,97,-99.99,,,0.00,Acu-Link.com,2013-09-16 17:18:00,
2013-09-16 13:33:00,79.3,78.1,29.95,East,90,4.2,-999.0,96,-99.99,,,0.00,Acu-Link.com,2013-09-16 17:33:00,
2013-09-16 13:49:00,80.6,78.7,29.95,East,90,4.7,-999.0,94,-99.99,,,0.00,Acu-Link.com,2013-09-16 17:49:00,
2013-09-16 14:04:00,81.5,78.3,29.95,SE,135,1.7,-999.0,90,-99.99,,,0.00,Acu-Link.com,2013-09-16 18:04:00,
2013-09-16 14:19:00,80.4,77.5,29.94,SSE,157,3.2,-999.0,91,-99.99,,,0.00,Acu-Link.com,2013-09-16 18:19:00,
2013-09-16 14:34:00,77.7,76.1,29.94,South,180,2.2,-999.0,95,-99.99,,,0.00,Acu-Link.com,2013-09-16 18:34:00,
2013-09-16 14:49:00,80.4,76.2,29.93,WNW,292,2.7,-999.0,87,-99.99,,,0.00,Acu-Link.com,2013-09-16 18:49:00,
2013-09-16 15:05:00,81.0,76.1,29.93,NE,45,2.7,-999.0,85,-99.99,,,0.00,Acu-Link.com,2013-09-16 19:05:00,
2013-09-16 15:20:00,81.3,76.7,29.92,SE,135,1.7,-999.0,86,-99.99,,,0.00,Acu-Link.com,2013-09-16 19:20:00,
2013-09-16 15:35:00,80.1,75.2,29.92,ESE,112,2.7,-999.0,85,-99.99,,,0.00,Acu-Link.com,2013-09-16 19:35:00,
2013-09-16 15:50:00,81.0,76.4,29.91,NE,45,1.1,-999.0,86,-99.99,,,0.00,Acu-Link.com,2013-09-16 19:50:00,
2013-09-16 16:06:00,78.3,74.8,29.91,SSE,157,1.1,-999.0,89,-99.99,,,0.00,Acu-Link.com,2013-09-16 20:06:00,
2013-09-16 16:21:00,81.1,77.2,29.90,NE,45,2.2,-999.0,88,-99.99,,,0.00,Acu-Link.com,2013-09-16 20:21:00,
2013-09-16 16:36:00,79.3,75.8,29.91,NE,45,2.7,-999.0,89,-99.99,,,0.00,Acu-Link.com,2013-09-16 20:36:00,
2013-09-16 16:51:00,77.7,74.5,29.91,NNE,22,1.7,-999.0,90,-99.99,,,0.00,Acu-Link.com,2013-09-16 20:51:00,
2013-09-16 17:06:00,77.7,74.2,29.90,SE,135,0.0,-999.0,89,-99.99,,,0.00,Acu-Link.com,2013-09-16 21:06:00,
2013-09-16 17:21:00,79.3,73.7,29.90,SSE,157,0.0,-999.0,83,-99.99,,,0.00,Acu-Link.com,2013-09-16 21:21:00,
2013-09-16 17:36:00,79.0,73.7,29.90,East,90,1.7,-999.0,84,-99.99,,,0.00,Acu-Link.com,2013-09-16 21:36:00,
2013-09-16 17:52:00,77.2,73.4,29.90,SSE,157,0.0,-999.0,88,-99.99,,,0.00,Acu-Link.com,2013-09-16 21:52:00,
2013-09-16 18:07:00,76.5,74.3,29.91,East,90,0.0,-999.0,93,-99.99,,,0.00,Acu-Link.com,2013-09-16 22:07:00,
2013-09-16 18:22:00,75.2,74.3,29.90,ESE,112,0.0,-999.0,97,-99.99,,,0.00,Acu-Link.com,2013-09-16 22:22:00,
2013-09-16 18:38:00,74.3,73.7,29.91,ENE,67,1.7,-999.0,98,-99.99,,,0.00,Acu-Link.com,2013-09-16 22:38:00,
2013-09-16 18:54:00,73.8,73.2,29.91,WSW,247,0.0,-999.0,98,-99.99,,,0.00,Acu-Link.com,2013-09-16 22:54:00,
2013-09-16 19:41:00,70.9,70.3,29.91,WSW,247,0.0,-999.0,98,-99.99,,,0.00,Acu-Link.com,2013-09-16 23:41:00,
2013-09-16 19:58:00,70.5,69.9,29.92,ESE,112,0.0,-999.0,98,-99.99,,,0.00,Acu-Link.com,2013-09-16 23:58:00,
2013-09-16 20:13:00,70.5,69.9,29.93,WNW,292,0.0,-999.0,98,-99.99,,,0.00,Acu-Link.com,2013-09-17 00:13:00,
2013-09-16 20:38:00,70.2,69.6,29.93,SSW,202,0.0,-999.0,98,-99.99,,,0.00,Acu-Link.com,2013-09-17 00:38:00,
2013-09-16 21:44:00,67.6,67.0,29.96,SSE,157,0.0,-999.0,98,-99.99,,,0.00,Acu-Link.com,2013-09-17 01:44:00,
2013-09-16 22:00:00,67.3,66.7,29.96,SSW,202,0.0,-999.0,98,-99.99,,,0.00,Acu-Link.com,2013-09-17 02:00:00,
2013-09-16 22:15:00,67.1,66.5,29.96,SW,225,0.0,-999.0,98,-99.99,,,0.00,Acu-Link.com,2013-09-17 02:15:00,
2013-09-16 22:30:00,66.9,66.3,29.97,ESE,112,0.0,-999.0,98,-99.99,,,0.00,Acu-Link.com,2013-09-17 02:30:00,
2013-09-16 22:45:00,66.9,66.3,29.97,SSE,157,0.0,-999.0,98,-99.99,,,0.00,Acu-Link.com,2013-09-17 02:45:00,
2013-09-16 23:00:00,66.7,66.1,29.97,ENE,67,0.0,-999.0,98,-99.99,,,0.00,Acu-Link.com,2013-09-17 03:00:00,
2013-09-16 23:16:00,66.6,66.0,29.97,NNE,22,0.0,-999.0,98,-99.99,,,0.00,Acu-Link.com,2013-09-17 03:16:00,
2013-09-16 23:31:00,66.6,66.0,29.98,NW,315,0.0,-999.0,98,-99.99,,,0.00,Acu-Link.com,2013-09-17 03:31:00,
2013-09-16 23:46:00,66.0,65.4,29.98,East,90,0.0,-999.0,98,-99.99,,,0.00,Acu-Link.com,2013-09-17 03:46:00,